<?xml version="1.0" encoding="UTF-8" standalone="no" ?>
<gpx xmlns="http://www.topografix.com/GPX/1/1" xmlns:xsi="http://www.w3.org/2001/XMLSchema-instance" xsi:schemaLocation="http://www.topografix.com/GPX/1/1 http://www.topografix.com/GPX/1/1/gpx.xsd" version="1.1" creator="VisuGPX - https://www.visugpx.com">
  <metadata>
    <name>12341430-givry madones mellecey</name>
  </metadata>
  <trk>
    <name><![CDATA[12341430-givry mellecey]]></name>
    <trkseg>
      <trkpt lat="46.78272" lon="4.7346">
        <ele>239</ele>
        <time>2021-01-30T16:48:54Z</time>
      </trkpt>
      <trkpt lat="46.78228" lon="4.73421">
        <ele>239</ele>
        <time>2021-01-30T16:50:03Z</time>
      </trkpt>
      <trkpt lat="46.78262" lon="4.73287">
        <ele>248</ele>
        <time>2021-01-30T16:52:13Z</time>
      </trkpt>
      <trkpt lat="46.78277" lon="4.7314">
        <ele>259</ele>
        <time>2021-01-30T16:54:29Z</time>
      </trkpt>
      <trkpt lat="46.78266" lon="4.73085">
        <ele>263</ele>
        <time>2021-01-30T16:55:21Z</time>
      </trkpt>
      <trkpt lat="46.7827" lon="4.73068">
        <ele>265</ele>
        <time>2021-01-30T16:55:38Z</time>
      </trkpt>
      <trkpt lat="46.78275" lon="4.7302">
        <ele>271</ele>
        <time>2021-01-30T16:56:22Z</time>
      </trkpt>
      <trkpt lat="46.7827" lon="4.72987">
        <ele>275</ele>
        <time>2021-01-30T16:56:53Z</time>
      </trkpt>
      <trkpt lat="46.78255" lon="4.72964">
        <ele>279</ele>
        <time>2021-01-30T16:57:22Z</time>
      </trkpt>
      <trkpt lat="46.78255" lon="4.72645">
        <ele>319</ele>
        <time>2021-01-30T17:02:14Z</time>
      </trkpt>
      <trkpt lat="46.78264" lon="4.72424">
        <ele>333</ele>
        <time>2021-01-30T17:05:36Z</time>
      </trkpt>
      <trkpt lat="46.78247" lon="4.72336">
        <ele>336</ele>
        <time>2021-01-30T17:07:00Z</time>
      </trkpt>
      <trkpt lat="46.7824" lon="4.72164">
        <ele>344</ele>
        <time>2021-01-30T17:09:37Z</time>
      </trkpt>
      <trkpt lat="46.78253" lon="4.71916">
        <ele>359</ele>
        <time>2021-01-30T17:13:24Z</time>
      </trkpt>
      <trkpt lat="46.78241" lon="4.71876">
        <ele>360</ele>
        <time>2021-01-30T17:14:04Z</time>
      </trkpt>
      <trkpt lat="46.7819" lon="4.71841">
        <ele>355</ele>
        <time>2021-01-30T17:15:19Z</time>
      </trkpt>
      <trkpt lat="46.7817" lon="4.71819">
        <ele>352</ele>
        <time>2021-01-30T17:15:53Z</time>
      </trkpt>
      <trkpt lat="46.78147" lon="4.71774">
        <ele>348</ele>
        <time>2021-01-30T17:16:44Z</time>
      </trkpt>
      <trkpt lat="46.78135" lon="4.717">
        <ele>346</ele>
        <time>2021-01-30T17:17:54Z</time>
      </trkpt>
      <trkpt lat="46.78122" lon="4.71663">
        <ele>345</ele>
        <time>2021-01-30T17:18:32Z</time>
      </trkpt>
      <trkpt lat="46.78092" lon="4.71553">
        <ele>349</ele>
        <time>2021-01-30T17:20:20Z</time>
      </trkpt>
      <trkpt lat="46.78059" lon="4.71443">
        <ele>351</ele>
        <time>2021-01-30T17:22:10Z</time>
      </trkpt>
      <trkpt lat="46.78051" lon="4.71363">
        <ele>349</ele>
        <time>2021-01-30T17:23:23Z</time>
      </trkpt>
      <trkpt lat="46.78038" lon="4.713">
        <ele>345</ele>
        <time>2021-01-30T17:24:24Z</time>
      </trkpt>
      <trkpt lat="46.78034" lon="4.71242">
        <ele>345</ele>
        <time>2021-01-30T17:25:17Z</time>
      </trkpt>
      <trkpt lat="46.78027" lon="4.71163">
        <ele>343</ele>
        <time>2021-01-30T17:26:30Z</time>
      </trkpt>
      <trkpt lat="46.78038" lon="4.71047">
        <ele>344</ele>
        <time>2021-01-30T17:28:17Z</time>
      </trkpt>
      <trkpt lat="46.78061" lon="4.70976">
        <ele>348</ele>
        <time>2021-01-30T17:29:28Z</time>
      </trkpt>
      <trkpt lat="46.78074" lon="4.70905">
        <ele>350</ele>
        <time>2021-01-30T17:30:36Z</time>
      </trkpt>
      <trkpt lat="46.7807" lon="4.70821">
        <ele>355</ele>
        <time>2021-01-30T17:31:52Z</time>
      </trkpt>
      <trkpt lat="46.78084" lon="4.70792">
        <ele>361</ele>
        <time>2021-01-30T17:32:25Z</time>
      </trkpt>
      <trkpt lat="46.78089" lon="4.7078">
        <ele>363</ele>
        <time>2021-01-30T17:32:38Z</time>
      </trkpt>
      <trkpt lat="46.78078" lon="4.70764">
        <ele>363</ele>
        <time>2021-01-30T17:32:58Z</time>
      </trkpt>
      <trkpt lat="46.78033" lon="4.70715">
        <ele>363</ele>
        <time>2021-01-30T17:34:13Z</time>
      </trkpt>
      <trkpt lat="46.78059" lon="4.70645">
        <ele>373</ele>
        <time>2021-01-30T17:35:26Z</time>
      </trkpt>
      <trkpt lat="46.78101" lon="4.70636">
        <ele>379</ele>
        <time>2021-01-30T17:36:23Z</time>
      </trkpt>
      <trkpt lat="46.78158" lon="4.70638">
        <ele>387</ele>
        <time>2021-01-30T17:37:39Z</time>
      </trkpt>
      <trkpt lat="46.78191" lon="4.70623">
        <ele>394</ele>
        <time>2021-01-30T17:38:25Z</time>
      </trkpt>
      <trkpt lat="46.78206" lon="4.70632">
        <ele>396</ele>
        <time>2021-01-30T17:38:47Z</time>
      </trkpt>
      <trkpt lat="46.78223" lon="4.70662">
        <ele>396</ele>
        <time>2021-01-30T17:39:22Z</time>
      </trkpt>
      <trkpt lat="46.78261" lon="4.70677">
        <ele>401</ele>
        <time>2021-01-30T17:40:15Z</time>
      </trkpt>
      <trkpt lat="46.78284" lon="4.70697">
        <ele>402</ele>
        <time>2021-01-30T17:40:50Z</time>
      </trkpt>
      <trkpt lat="46.78316" lon="4.70739">
        <ele>405</ele>
        <time>2021-01-30T17:41:48Z</time>
      </trkpt>
      <trkpt lat="46.78401" lon="4.7075">
        <ele>417</ele>
        <time>2021-01-30T17:43:42Z</time>
      </trkpt>
      <trkpt lat="46.78437" lon="4.70745">
        <ele>422</ele>
        <time>2021-01-30T17:44:30Z</time>
      </trkpt>
      <trkpt lat="46.78472" lon="4.70728">
        <ele>426</ele>
        <time>2021-01-30T17:45:19Z</time>
      </trkpt>
      <trkpt lat="46.78515" lon="4.70713">
        <ele>431</ele>
        <time>2021-01-30T17:46:18Z</time>
      </trkpt>
      <trkpt lat="46.78638" lon="4.70685">
        <ele>434</ele>
        <time>2021-01-30T17:49:04Z</time>
      </trkpt>
      <trkpt lat="46.78757" lon="4.70727">
        <ele>430</ele>
        <time>2021-01-30T17:51:48Z</time>
      </trkpt>
      <trkpt lat="46.78788" lon="4.70702">
        <ele>427</ele>
        <time>2021-01-30T17:52:35Z</time>
      </trkpt>
      <trkpt lat="46.78839" lon="4.7066">
        <ele>425</ele>
        <time>2021-01-30T17:53:53Z</time>
      </trkpt>
      <trkpt lat="46.789" lon="4.7062">
        <ele>421</ele>
        <time>2021-01-30T17:55:22Z</time>
      </trkpt>
      <trkpt lat="46.78956" lon="4.70606">
        <ele>417</ele>
        <time>2021-01-30T17:56:38Z</time>
      </trkpt>
      <trkpt lat="46.7899" lon="4.7061">
        <ele>416</ele>
        <time>2021-01-30T17:57:24Z</time>
      </trkpt>
      <trkpt lat="46.79006" lon="4.70571">
        <ele>414</ele>
        <time>2021-01-30T17:58:05Z</time>
      </trkpt>
      <trkpt lat="46.79009" lon="4.70541">
        <ele>411</ele>
        <time>2021-01-30T17:58:33Z</time>
      </trkpt>
      <trkpt lat="46.79005" lon="4.70452">
        <ele>404</ele>
        <time>2021-01-30T17:59:54Z</time>
      </trkpt>
      <trkpt lat="46.78986" lon="4.70336">
        <ele>394</ele>
        <time>2021-01-30T18:01:43Z</time>
      </trkpt>
      <trkpt lat="46.7902" lon="4.70375">
        <ele>395</ele>
        <time>2021-01-30T18:02:41Z</time>
      </trkpt>
      <trkpt lat="46.79063" lon="4.70367">
        <ele>389</ele>
        <time>2021-01-30T18:03:39Z</time>
      </trkpt>
      <trkpt lat="46.7909" lon="4.70347">
        <ele>382</ele>
        <time>2021-01-30T18:04:19Z</time>
      </trkpt>
      <trkpt lat="46.79133" lon="4.70409">
        <ele>386</ele>
        <time>2021-01-30T18:05:40Z</time>
      </trkpt>
      <trkpt lat="46.79214" lon="4.70433">
        <ele>379</ele>
        <time>2021-01-30T18:07:30Z</time>
      </trkpt>
      <trkpt lat="46.79208" lon="4.70604">
        <ele>397</ele>
        <time>2021-01-30T18:10:07Z</time>
      </trkpt>
      <trkpt lat="46.79217" lon="4.70649">
        <ele>401</ele>
        <time>2021-01-30T18:10:50Z</time>
      </trkpt>
      <trkpt lat="46.79207" lon="4.70714">
        <ele>404</ele>
        <time>2021-01-30T18:11:50Z</time>
      </trkpt>
      <trkpt lat="46.79329" lon="4.70779">
        <ele>396</ele>
        <time>2021-01-30T18:14:44Z</time>
      </trkpt>
      <trkpt lat="46.79461" lon="4.70837">
        <ele>385</ele>
        <time>2021-01-30T18:17:48Z</time>
      </trkpt>
      <trkpt lat="46.79531" lon="4.70865">
        <ele>379</ele>
        <time>2021-01-30T18:19:24Z</time>
      </trkpt>
      <trkpt lat="46.79555" lon="4.7089">
        <ele>378</ele>
        <time>2021-01-30T18:20:04Z</time>
      </trkpt>
      <trkpt lat="46.79594" lon="4.70909">
        <ele>377</ele>
        <time>2021-01-30T18:20:59Z</time>
      </trkpt>
      <trkpt lat="46.79529" lon="4.71003">
        <ele>379</ele>
        <time>2021-01-30T18:23:01Z</time>
      </trkpt>
      <trkpt lat="46.79512" lon="4.71074">
        <ele>380</ele>
        <time>2021-01-30T18:24:09Z</time>
      </trkpt>
      <trkpt lat="46.79572" lon="4.71248">
        <ele>372</ele>
        <time>2021-01-30T18:27:07Z</time>
      </trkpt>
      <trkpt lat="46.79616" lon="4.71286">
        <ele>369</ele>
        <time>2021-01-30T18:28:16Z</time>
      </trkpt>
      <trkpt lat="46.79631" lon="4.71322">
        <ele>366</ele>
        <time>2021-01-30T18:28:54Z</time>
      </trkpt>
      <trkpt lat="46.79693" lon="4.71367">
        <ele>361</ele>
        <time>2021-01-30T18:30:27Z</time>
      </trkpt>
      <trkpt lat="46.79672" lon="4.71515">
        <ele>354</ele>
        <time>2021-01-30T18:32:45Z</time>
      </trkpt>
      <trkpt lat="46.79677" lon="4.71551">
        <ele>352</ele>
        <time>2021-01-30T18:33:18Z</time>
      </trkpt>
      <trkpt lat="46.79714" lon="4.71557">
        <ele>353</ele>
        <time>2021-01-30T18:34:08Z</time>
      </trkpt>
      <trkpt lat="46.79839" lon="4.71558">
        <ele>346</ele>
        <time>2021-01-30T18:36:55Z</time>
      </trkpt>
      <trkpt lat="46.79916" lon="4.71572">
        <ele>337</ele>
        <time>2021-01-30T18:38:38Z</time>
      </trkpt>
      <trkpt lat="46.80068" lon="4.71634">
        <ele>315</ele>
        <time>2021-01-30T18:42:09Z</time>
      </trkpt>
      <trkpt lat="46.80165" lon="4.71647">
        <ele>306</ele>
        <time>2021-01-30T18:44:19Z</time>
      </trkpt>
      <trkpt lat="46.8035" lon="4.71668">
        <ele>290</ele>
        <time>2021-01-30T18:48:26Z</time>
      </trkpt>
      <trkpt lat="46.80427" lon="4.71699">
        <ele>280</ele>
        <time>2021-01-30T18:50:13Z</time>
      </trkpt>
      <trkpt lat="46.80461" lon="4.71734">
        <ele>276</ele>
        <time>2021-01-30T18:51:09Z</time>
      </trkpt>
      <trkpt lat="46.80478" lon="4.71771">
        <ele>276</ele>
        <time>2021-01-30T18:51:49Z</time>
      </trkpt>
      <trkpt lat="46.80536" lon="4.71781">
        <ele>268</ele>
        <time>2021-01-30T18:53:07Z</time>
      </trkpt>
      <trkpt lat="46.80624" lon="4.71837">
        <ele>260</ele>
        <time>2021-01-30T18:55:15Z</time>
      </trkpt>
      <trkpt lat="46.80814" lon="4.71925">
        <ele>244</ele>
        <time>2021-01-30T18:59:41Z</time>
      </trkpt>
      <trkpt lat="46.80856" lon="4.71928">
        <ele>239</ele>
        <time>2021-01-30T19:00:37Z</time>
      </trkpt>
      <trkpt lat="46.80986" lon="4.72012">
        <ele>231</ele>
        <time>2021-01-30T19:03:47Z</time>
      </trkpt>
      <trkpt lat="46.81056" lon="4.72011">
        <ele>222</ele>
        <time>2021-01-30T19:05:20Z</time>
      </trkpt>
      <trkpt lat="46.81078" lon="4.72058">
        <ele>221</ele>
        <time>2021-01-30T19:06:12Z</time>
      </trkpt>
      <trkpt lat="46.81099" lon="4.72056">
        <ele>219</ele>
        <time>2021-01-30T19:06:41Z</time>
      </trkpt>
      <trkpt lat="46.81102" lon="4.72148">
        <ele>220</ele>
        <time>2021-01-30T19:08:05Z</time>
      </trkpt>
      <trkpt lat="46.81105" lon="4.72229">
        <ele>219</ele>
        <time>2021-01-30T19:09:19Z</time>
      </trkpt>
      <trkpt lat="46.81063" lon="4.72416">
        <ele>216</ele>
        <time>2021-01-30T19:12:19Z</time>
      </trkpt>
      <trkpt lat="46.8101" lon="4.72453">
        <ele>219</ele>
        <time>2021-01-30T19:13:37Z</time>
      </trkpt>
      <trkpt lat="46.80989" lon="4.72457">
        <ele>220</ele>
        <time>2021-01-30T19:14:05Z</time>
      </trkpt>
      <trkpt lat="46.80982" lon="4.72476">
        <ele>220</ele>
        <time>2021-01-30T19:14:25Z</time>
      </trkpt>
      <trkpt lat="46.8098" lon="4.72551">
        <ele>218</ele>
        <time>2021-01-30T19:15:33Z</time>
      </trkpt>
      <trkpt lat="46.8098" lon="4.72592">
        <ele>218</ele>
        <time>2021-01-30T19:16:11Z</time>
      </trkpt>
      <trkpt lat="46.80992" lon="4.72638">
        <ele>217</ele>
        <time>2021-01-30T19:16:56Z</time>
      </trkpt>
      <trkpt lat="46.80993" lon="4.7266">
        <ele>216</ele>
        <time>2021-01-30T19:17:16Z</time>
      </trkpt>
      <trkpt lat="46.80992" lon="4.72688">
        <ele>216</ele>
        <time>2021-01-30T19:17:42Z</time>
      </trkpt>
      <trkpt lat="46.80949" lon="4.72688">
        <ele>216</ele>
        <time>2021-01-30T19:18:39Z</time>
      </trkpt>
      <trkpt lat="46.80891" lon="4.72723">
        <ele>218</ele>
        <time>2021-01-30T19:20:03Z</time>
      </trkpt>
      <trkpt lat="46.8088" lon="4.72781">
        <ele>219</ele>
        <time>2021-01-30T19:20:58Z</time>
      </trkpt>
      <trkpt lat="46.80792" lon="4.72855">
        <ele>220</ele>
        <time>2021-01-30T19:23:13Z</time>
      </trkpt>
      <trkpt lat="46.80723" lon="4.72965">
        <ele>219</ele>
        <time>2021-01-30T19:25:29Z</time>
      </trkpt>
      <trkpt lat="46.80696" lon="4.73092">
        <ele>220</ele>
        <time>2021-01-30T19:27:31Z</time>
      </trkpt>
      <trkpt lat="46.80563" lon="4.73173">
        <ele>223</ele>
        <time>2021-01-30T19:30:43Z</time>
      </trkpt>
      <trkpt lat="46.80475" lon="4.73258">
        <ele>226</ele>
        <time>2021-01-30T19:33:04Z</time>
      </trkpt>
      <trkpt lat="46.80439" lon="4.73238">
        <ele>228</ele>
        <time>2021-01-30T19:33:55Z</time>
      </trkpt>
      <trkpt lat="46.80375" lon="4.7323">
        <ele>230</ele>
        <time>2021-01-30T19:35:21Z</time>
      </trkpt>
      <trkpt lat="46.80323" lon="4.73298">
        <ele>230</ele>
        <time>2021-01-30T19:36:54Z</time>
      </trkpt>
      <trkpt lat="46.80272" lon="4.73359">
        <ele>230</ele>
        <time>2021-01-30T19:38:22Z</time>
      </trkpt>
      <trkpt lat="46.80215" lon="4.7344">
        <ele>239</ele>
        <time>2021-01-30T19:40:08Z</time>
      </trkpt>
      <trkpt lat="46.80148" lon="4.73497">
        <ele>252</ele>
        <time>2021-01-30T19:41:52Z</time>
      </trkpt>
      <trkpt lat="46.8" lon="4.73586">
        <ele>276</ele>
        <time>2021-01-30T19:45:25Z</time>
      </trkpt>
      <trkpt lat="46.79978" lon="4.73576">
        <ele>278</ele>
        <time>2021-01-30T19:45:56Z</time>
      </trkpt>
      <trkpt lat="46.7994" lon="4.73582">
        <ele>283</ele>
        <time>2021-01-30T19:46:47Z</time>
      </trkpt>
      <trkpt lat="46.79921" lon="4.7356">
        <ele>286</ele>
        <time>2021-01-30T19:47:19Z</time>
      </trkpt>
      <trkpt lat="46.79902" lon="4.73518">
        <ele>286</ele>
        <time>2021-01-30T19:48:05Z</time>
      </trkpt>
      <trkpt lat="46.79873" lon="4.73473">
        <ele>287</ele>
        <time>2021-01-30T19:49:02Z</time>
      </trkpt>
      <trkpt lat="46.79828" lon="4.73431">
        <ele>292</ele>
        <time>2021-01-30T19:50:13Z</time>
      </trkpt>
      <trkpt lat="46.7978" lon="4.73395">
        <ele>294</ele>
        <time>2021-01-30T19:51:25Z</time>
      </trkpt>
      <trkpt lat="46.7972" lon="4.7337">
        <ele>299</ele>
        <time>2021-01-30T19:52:48Z</time>
      </trkpt>
      <trkpt lat="46.79653" lon="4.73342">
        <ele>308</ele>
        <time>2021-01-30T19:54:21Z</time>
      </trkpt>
      <trkpt lat="46.79594" lon="4.73322">
        <ele>315</ele>
        <time>2021-01-30T19:55:42Z</time>
      </trkpt>
      <trkpt lat="46.79588" lon="4.73319">
        <ele>316</ele>
        <time>2021-01-30T19:55:51Z</time>
      </trkpt>
      <trkpt lat="46.79534" lon="4.73344">
        <ele>320</ele>
        <time>2021-01-30T19:57:06Z</time>
      </trkpt>
      <trkpt lat="46.79499" lon="4.73344">
        <ele>326</ele>
        <time>2021-01-30T19:57:53Z</time>
      </trkpt>
      <trkpt lat="46.7948" lon="4.73431">
        <ele>324</ele>
        <time>2021-01-30T19:59:16Z</time>
      </trkpt>
      <trkpt lat="46.7947" lon="4.73496">
        <ele>323</ele>
        <time>2021-01-30T20:00:17Z</time>
      </trkpt>
      <trkpt lat="46.79484" lon="4.73569">
        <ele>324</ele>
        <time>2021-01-30T20:01:27Z</time>
      </trkpt>
      <trkpt lat="46.79464" lon="4.73718">
        <ele>325</ele>
        <time>2021-01-30T20:03:45Z</time>
      </trkpt>
      <trkpt lat="46.79439" lon="4.73798">
        <ele>324</ele>
        <time>2021-01-30T20:05:06Z</time>
      </trkpt>
      <trkpt lat="46.7943" lon="4.73859">
        <ele>324</ele>
        <time>2021-01-30T20:06:03Z</time>
      </trkpt>
      <trkpt lat="46.7943" lon="4.73901">
        <ele>321</ele>
        <time>2021-01-30T20:06:41Z</time>
      </trkpt>
      <trkpt lat="46.7938" lon="4.73893">
        <ele>322</ele>
        <time>2021-01-30T20:07:48Z</time>
      </trkpt>
      <trkpt lat="46.79339" lon="4.73926">
        <ele>321</ele>
        <time>2021-01-30T20:08:51Z</time>
      </trkpt>
      <trkpt lat="46.79311" lon="4.74013">
        <ele>317</ele>
        <time>2021-01-30T20:10:18Z</time>
      </trkpt>
      <trkpt lat="46.79282" lon="4.74097">
        <ele>313</ele>
        <time>2021-01-30T20:11:44Z</time>
      </trkpt>
      <trkpt lat="46.79262" lon="4.74129">
        <ele>310</ele>
        <time>2021-01-30T20:12:24Z</time>
      </trkpt>
      <trkpt lat="46.79203" lon="4.74164">
        <ele>306</ele>
        <time>2021-01-30T20:13:49Z</time>
      </trkpt>
      <trkpt lat="46.79141" lon="4.74201">
        <ele>300</ele>
        <time>2021-01-30T20:15:18Z</time>
      </trkpt>
      <trkpt lat="46.79109" lon="4.74217">
        <ele>295</ele>
        <time>2021-01-30T20:16:03Z</time>
      </trkpt>
      <trkpt lat="46.7905" lon="4.74254">
        <ele>285</ele>
        <time>2021-01-30T20:17:29Z</time>
      </trkpt>
      <trkpt lat="46.79003" lon="4.74283">
        <ele>276</ele>
        <time>2021-01-30T20:18:37Z</time>
      </trkpt>
      <trkpt lat="46.78964" lon="4.74304">
        <ele>268</ele>
        <time>2021-01-30T20:19:33Z</time>
      </trkpt>
      <trkpt lat="46.78945" lon="4.7432">
        <ele>264</ele>
        <time>2021-01-30T20:20:02Z</time>
      </trkpt>
      <trkpt lat="46.7895" lon="4.74365">
        <ele>262</ele>
        <time>2021-01-30T20:20:44Z</time>
      </trkpt>
      <trkpt lat="46.78946" lon="4.74383">
        <ele>260</ele>
        <time>2021-01-30T20:21:01Z</time>
      </trkpt>
      <trkpt lat="46.78924" lon="4.74384">
        <ele>257</ele>
        <time>2021-01-30T20:21:30Z</time>
      </trkpt>
      <trkpt lat="46.78923" lon="4.74415">
        <ele>255</ele>
        <time>2021-01-30T20:21:59Z</time>
      </trkpt>
      <trkpt lat="46.78885" lon="4.74429">
        <ele>250</ele>
        <time>2021-01-30T20:22:51Z</time>
      </trkpt>
      <trkpt lat="46.78874" lon="4.74442">
        <ele>248</ele>
        <time>2021-01-30T20:23:10Z</time>
      </trkpt>
      <trkpt lat="46.78865" lon="4.7445">
        <ele>247</ele>
        <time>2021-01-30T20:23:24Z</time>
      </trkpt>
      <trkpt lat="46.78853" lon="4.74429">
        <ele>247</ele>
        <time>2021-01-30T20:23:49Z</time>
      </trkpt>
      <trkpt lat="46.78805" lon="4.74407">
        <ele>243</ele>
        <time>2021-01-30T20:24:56Z</time>
      </trkpt>
      <trkpt lat="46.78773" lon="4.74378">
        <ele>239</ele>
        <time>2021-01-30T20:25:46Z</time>
      </trkpt>
      <trkpt lat="46.78739" lon="4.74335">
        <ele>236</ele>
        <time>2021-01-30T20:26:46Z</time>
      </trkpt>
      <trkpt lat="46.78711" lon="4.74265">
        <ele>233</ele>
        <time>2021-01-30T20:28:00Z</time>
      </trkpt>
      <trkpt lat="46.78683" lon="4.74167">
        <ele>230</ele>
        <time>2021-01-30T20:29:37Z</time>
      </trkpt>
      <trkpt lat="46.78515" lon="4.74631">
        <ele>222</ele>
        <time>2021-01-30T20:37:37Z</time>
      </trkpt>
      <trkpt lat="46.78447" lon="4.74819">
        <ele>220</ele>
        <time>2021-01-30T20:40:51Z</time>
      </trkpt>
      <trkpt lat="46.78426" lon="4.7501">
        <ele>216</ele>
        <time>2021-01-30T20:43:48Z</time>
      </trkpt>
      <trkpt lat="46.78519" lon="4.75106">
        <ele>218</ele>
        <time>2021-01-30T20:46:20Z</time>
      </trkpt>
      <trkpt lat="46.78435" lon="4.75016">
        <ele>217</ele>
        <time>2021-01-30T20:48:39Z</time>
      </trkpt>
      <trkpt lat="46.78444" lon="4.74842">
        <ele>220</ele>
        <time>2021-01-30T20:51:18Z</time>
      </trkpt>
      <trkpt lat="46.78678" lon="4.74148">
        <ele>230</ele>
        <time>2021-01-30T21:03:05Z</time>
      </trkpt>
      <trkpt lat="46.78632" lon="4.74078">
        <ele>230</ele>
        <time>2021-01-30T21:04:34Z</time>
      </trkpt>
      <trkpt lat="46.7862" lon="4.74042">
        <ele>230</ele>
        <time>2021-01-30T21:05:11Z</time>
      </trkpt>
      <trkpt lat="46.78608" lon="4.73942">
        <ele>232</ele>
        <time>2021-01-30T21:06:43Z</time>
      </trkpt>
      <trkpt lat="46.786" lon="4.73896">
        <ele>233</ele>
        <time>2021-01-30T21:07:27Z</time>
      </trkpt>
      <trkpt lat="46.78582" lon="4.73846">
        <ele>232</ele>
        <time>2021-01-30T21:08:18Z</time>
      </trkpt>
      <trkpt lat="46.78565" lon="4.73812">
        <ele>231</ele>
        <time>2021-01-30T21:08:57Z</time>
      </trkpt>
      <trkpt lat="46.78552" lon="4.73797">
        <ele>231</ele>
        <time>2021-01-30T21:09:19Z</time>
      </trkpt>
      <trkpt lat="46.78538" lon="4.73815">
        <ele>230</ele>
        <time>2021-01-30T21:09:44Z</time>
      </trkpt>
      <trkpt lat="46.78473" lon="4.73793">
        <ele>229</ele>
        <time>2021-01-30T21:11:13Z</time>
      </trkpt>
      <trkpt lat="46.78466" lon="4.73768">
        <ele>229</ele>
        <time>2021-01-30T21:11:37Z</time>
      </trkpt>
      <trkpt lat="46.78426" lon="4.73722">
        <ele>229</ele>
        <time>2021-01-30T21:12:45Z</time>
      </trkpt>
      <trkpt lat="46.7842" lon="4.73671">
        <ele>231</ele>
        <time>2021-01-30T21:13:33Z</time>
      </trkpt>
      <trkpt lat="46.78382" lon="4.73584">
        <ele>234</ele>
        <time>2021-01-30T21:15:07Z</time>
      </trkpt>
      <trkpt lat="46.78276" lon="4.73465">
        <ele>239</ele>
        <time>2021-01-30T21:18:05Z</time>
      </trkpt>
    </trkseg>
  </trk>
</gpx>